North Bingham, Pennsylvania
Current Conditions -  °F | °C
As of 2:56 PM on Saturday 25 Oct 2014 (Local Time) from KELZ Reporting Station
Overcast Overcast  
Wind Chill: 62°   Ceiling: 5000
Heat Index: 62°   Visibility: 10mi
Dew Point: 43°   Wind: 10mph
Humidity: 50%   Direction: 250°WSW
Pressure: 29.69"   Gusts: 22mph
Location:  41.9875°N, 77.7619°W
Report Text: KELZ 251856Z AUTO 25009G19KT 10SM FEW045 OVC050 17/06 A2969 RMK AO2 PK WND 22026/1801 SLP053 T01670061
Loading
Personal Weather Stations






























Interactive Weather Map
Tropical Storm Tracking
New forecast layout! Learn more

10-Day Weather Forecast

Advertisements
Track Severe Weather on mobile